sensor_id;sensor_type;location;lat;lon;timestamp;pressure;altitude;pressure_sealevel;temperature;humidity
53506;BME280;39388;50.936;6.848;2023-04-05T00:00:47;101756.75;;;4.27;59.80
53506;BME280;39388;50.936;6.848;2023-04-05T00:03:17;101767.91;;;4.29;59.55
53506;BME280;39388;50.936;6.848;2023-04-05T00:05:47;101768.69;;;4.28;59.18
53506;BME280;39388;50.936;6.848;2023-04-05T00:08:19;101771.25;;;4.28;59.69
53506;BME280;39388;50.936;6.848;2023-04-05T00:10:57;101765.16;;;4.25;59.39
53506;BME280;39388;50.936;6.848;2023-04-05T00:13:28;101775.38;;;4.25;59.59
53506;BME280;39388;50.936;6.848;2023-04-05T00:15:59;101763.38;;;4.22;59.86
53506;BME280;39388;50.936;6.848;2023-04-05T00:18:30;101759.78;;;4.17;59.52
53506;BME280;39388;50.936;6.848;2023-04-05T00:21:03;101753.03;;;4.19;59.65
53506;BME280;39388;50.936;6.848;2023-04-05T00:23:33;101752.13;;;4.17;59.58
53506;BME280;39388;50.936;6.848;2023-04-05T00:26:08;101752.91;;;4.16;59.77
53506;BME280;39388;50.936;6.848;2023-04-05T00:28:39;101746.97;;;4.15;59.95
53506;BME280;39388;50.936;6.848;2023-04-05T00:31:11;101745.34;;;4.18;59.97
53506;BME280;39388;50.936;6.848;2023-04-05T00:33:41;101744.47;;;4.17;60.27
53506;BME280;39388;50.936;6.848;2023-04-05T00:36:13;101749.69;;;4.20;59.85
53506;BME280;39388;50.936;6.848;2023-04-05T00:38:46;101745.44;;;4.21;60.31
53506;BME280;39388;50.936;6.848;2023-04-05T00:41:16;101742.78;;;4.18;59.75
53506;BME280;39388;50.936;6.848;2023-04-05T00:43:47;101738.59;;;4.20;60.37
53506;BME280;39388;50.936;6.848;2023-04-05T00:46:17;101738.66;;;4.21;60.09
53506;BME280;39388;50.936;6.848;2023-04-05T00:48:47;101739.59;;;4.23;60.09
53506;BME280;39388;50.936;6.848;2023-04-05T00:51:19;101746.53;;;4.27;59.79
53506;BME280;39388;50.936;6.848;2023-04-05T00:53:50;101740.63;;;4.28;60.14
53506;BME280;39388;50.936;6.848;2023-04-05T00:56:21;101739.88;;;4.31;60.19
53506;BME280;39388;50.936;6.848;2023-04-05T00:58:53;101736.53;;;4.32;60.56
53506;BME280;39388;50.936;6.848;2023-04-05T01:01:24;101732.31;;;4.34;60.28
53506;BME280;39388;50.936;6.848;2023-04-05T01:03:58;101715.00;;;4.25;59.95
53506;BME280;39388;50.936;6.848;2023-04-05T01:09:56;101727.16;;;4.33;59.66
53506;BME280;39388;50.936;6.848;2023-04-05T01:12:31;101729.72;;;4.33;60.43
53506;BME280;39388;50.936;6.848;2023-04-05T01:15:02;101727.13;;;4.31;60.67
53506;BME280;39388;50.936;6.848;2023-04-05T01:17:33;101720.97;;;4.26;60.62
53506;BME280;39388;50.936;6.848;2023-04-05T01:20:09;101724.56;;;4.31;60.80
53506;BME280;39388;50.936;6.848;2023-04-05T01:26:14;101721.13;;;4.30;61.18
53506;BME280;39388;50.936;6.848;2023-04-05T01:29:07;101723.75;;;4.32;60.47
53506;BME280;39388;50.936;6.848;2023-04-05T01:31:45;101714.34;;;4.31;60.72
53506;BME280;39388;50.936;6.848;2023-04-05T01:37:02;101714.34;;;4.31;61.18
53506;BME280;39388;50.936;6.848;2023-04-05T01:39:35;101724.56;;;4.31;61.03
53506;BME280;39388;50.936;6.848;2023-04-05T01:42:06;101726.31;;;4.32;61.01
53506;BME280;39388;50.936;6.848;2023-04-05T01:44:37;101706.50;;;4.26;61.57
53506;BME280;39388;50.936;6.848;2023-04-05T01:47:07;101706.44;;;4.25;61.22
53506;BME280;39388;50.936;6.848;2023-04-05T01:49:38;101700.53;;;4.26;61.91
53506;BME280;39388;50.936;6.848;2023-04-05T01:52:08;101713.47;;;4.30;61.58
53506;BME280;39388;50.936;6.848;2023-04-05T01:54:38;101706.63;;;4.29;61.56
53506;BME280;39388;50.936;6.848;2023-04-05T01:57:09;101709.16;;;4.29;61.99
53506;BME280;39388;50.936;6.848;2023-04-05T01:59:39;101709.13;;;4.28;61.81
53506;BME280;39388;50.936;6.848;2023-04-05T02:02:10;101711.69;;;4.28;62.08
53506;BME280;39388;50.936;6.848;2023-04-05T02:04:40;101701.38;;;4.26;62.14
53506;BME280;39388;50.936;6.848;2023-04-05T02:07:11;101698.78;;;4.25;62.08
53506;BME280;39388;50.936;6.848;2023-04-05T02:09:41;101695.38;;;4.24;62.46
53506;BME280;39388;50.936;6.848;2023-04-05T02:12:12;101700.53;;;4.26;62.22
53506;BME280;39388;50.936;6.848;2023-04-05T02:14:42;101687.66;;;4.23;62.28
53506;BME280;39388;50.936;6.848;2023-04-05T02:17:12;101692.88;;;4.26;62.73
53506;BME280;39388;50.936;6.848;2023-04-05T02:19:43;101683.31;;;4.20;62.75
53506;BME280;39388;50.936;6.848;2023-04-05T02:24:48;101683.31;;;4.20;62.55
53506;BME280;39388;50.936;6.848;2023-04-05T02:27:18;101694.50;;;4.24;62.50
53506;BME280;39388;50.936;6.848;2023-04-05T02:29:48;101695.44;;;4.26;63.24
53506;BME280;39388;50.936;6.848;2023-04-05T02:32:19;101697.16;;;4.27;63.43
53506;BME280;39388;50.936;6.848;2023-04-05T02:34:49;101692.06;;;4.27;63.33
53506;BME280;39388;50.936;6.848;2023-04-05T02:37:21;101687.66;;;4.23;63.51
53506;BME280;39388;50.936;6.848;2023-04-05T02:39:52;101687.81;;;4.27;63.02
53506;BME280;39388;50.936;6.848;2023-04-05T02:42:26;101701.38;;;4.26;62.90
53506;BME280;39388;50.936;6.848;2023-04-05T02:44:56;101702.22;;;4.25;63.24
53506;BME280;39388;50.936;6.848;2023-04-05T02:47:27;101707.38;;;4.27;63.19
53506;BME280;39388;50.936;6.848;2023-04-05T02:49:57;101692.63;;;4.20;63.33
53506;BME280;39388;50.936;6.848;2023-04-05T02:52:27;101705.53;;;4.23;63.68
53506;BME280;39388;50.936;6.848;2023-04-05T02:54:58;101701.13;;;4.19;63.12
53506;BME280;39388;50.936;6.848;2023-04-05T02:57:28;101707.78;;;4.15;63.57
53506;BME280;39388;50.936;6.848;2023-04-05T02:59:58;101689.59;;;4.06;63.44
53506;BME280;39388;50.936;6.848;2023-04-05T03:02:29;101688.50;;;3.99;63.37
53506;BME280;39388;50.936;6.848;2023-04-05T03:05:00;101699.56;;;3.99;63.29
53506;BME280;39388;50.936;6.848;2023-04-05T03:07:31;101688.97;;;3.89;62.81
53506;BME280;39388;50.936;6.848;2023-04-05T03:10:02;101695.09;;;3.94;63.14
53506;BME280;39388;50.936;6.848;2023-04-05T03:12:34;101684.72;;;3.89;63.23
53506;BME280;39388;50.936;6.848;2023-04-05T03:15:04;101675.03;;;3.80;62.87
53506;BME280;39388;50.936;6.848;2023-04-05T03:17:35;101683.72;;;3.86;62.77
53506;BME280;39388;50.936;6.848;2023-04-05T03:20:06;101668.81;;;3.74;62.94
53506;BME280;39388;50.936;6.848;2023-04-05T03:22:38;101682.53;;;3.77;63.10
53506;BME280;39388;50.936;6.848;2023-04-05T03:25:10;101676.53;;;3.75;63.17
53506;BME280;39388;50.936;6.848;2023-04-05T03:27:40;101683.09;;;3.68;63.01
53506;BME280;39388;50.936;6.848;2023-04-05T03:30:11;101685.56;;;3.67;62.72
53506;BME280;39388;50.936;6.848;2023-04-05T03:32:41;101659.44;;;3.51;63.19
53506;BME280;39388;50.936;6.848;2023-04-05T03:35:12;101693.91;;;3.63;63.00
53506;BME280;39388;50.936;6.848;2023-04-05T03:37:42;101662.72;;;3.47;63.27
53506;BME280;39388;50.936;6.848;2023-04-05T03:40:12;101672.06;;;3.48;63.11
53506;BME280;39388;50.936;6.848;2023-04-05T03:42:43;101690.13;;;3.53;63.42
53506;BME280;39388;50.936;6.848;2023-04-05T03:45:14;101683.34;;;3.53;63.45
53506;BME280;39388;50.936;6.848;2023-04-05T03:47:44;101680.66;;;3.50;63.15
53506;BME280;39388;50.936;6.848;2023-04-05T03:50:15;101678.88;;;3.48;63.16
53506;BME280;39388;50.936;6.848;2023-04-05T03:52:45;101680.47;;;3.46;63.70
53506;BME280;39388;50.936;6.848;2023-04-05T03:55:16;101685.44;;;3.43;63.83
53506;BME280;39388;50.936;6.848;2023-04-05T03:57:46;101680.34;;;3.43;64.12
53506;BME280;39388;50.936;6.848;2023-04-05T04:00:17;101680.97;;;3.37;63.69
53506;BME280;39388;50.936;6.848;2023-04-05T04:02:49;101668.09;;;3.34;64.18
53506;BME280;39388;50.936;6.848;2023-04-05T04:05:19;101677.31;;;3.30;64.64
53506;BME280;39388;50.936;6.848;2023-04-05T04:07:50;101675.41;;;3.25;64.63
53506;BME280;39388;50.936;6.848;2023-04-05T04:10:21;101672.84;;;3.25;64.81
53506;BME280;39388;50.936;6.848;2023-04-05T04:12:51;101675.16;;;3.18;64.42
53506;BME280;39388;50.936;6.848;2023-04-05T04:15:21;101676.78;;;3.16;64.42
53506;BME280;39388;50.936;6.848;2023-04-05T04:17:52;101674.91;;;3.12;64.70
53506;BME280;39388;50.936;6.848;2023-04-05T04:20:22;101677.31;;;3.09;64.72
53506;BME280;39388;50.936;6.848;2023-04-05T04:22:52;101683.97;;;3.05;65.33
53506;BME280;39388;50.936;6.848;2023-04-05T04:25:23;101678.88;;;3.05;65.00
53506;BME280;39388;50.936;6.848;2023-04-05T04:27:55;101660.44;;;2.91;65.11
53506;BME280;39388;50.936;6.848;2023-04-05T04:30:26;101677.75;;;2.99;65.46
53506;BME280;39388;50.936;6.848;2023-04-05T04:32:56;101684.31;;;2.93;65.68
53506;BME280;39388;50.936;6.848;2023-04-05T04:35:30;101681.63;;;2.90;65.85
53506;BME280;39388;50.936;6.848;2023-04-05T04:38:04;101671.94;;;2.82;65.77
53506;BME280;39388;50.936;6.848;2023-04-05T04:40:36;101682.38;;;2.88;65.79
53506;BME280;39388;50.936;6.848;2023-04-05T04:43:11;101681.25;;;2.81;65.98
53506;BME280;39388;50.936;6.848;2023-04-05T04:45:48;101684.59;;;2.80;65.47
53506;BME280;39388;50.936;6.848;2023-04-05T04:48:19;101683.75;;;2.80;66.08
53506;BME280;39388;50.936;6.848;2023-04-05T04:50:50;101676.59;;;2.71;65.96
53506;BME280;39388;50.936;6.848;2023-04-05T04:53:20;101680.06;;;2.73;66.37
53506;BME280;39388;50.936;6.848;2023-04-05T04:55:51;101679.66;;;2.64;65.97
53506;BME280;39388;50.936;6.848;2023-04-05T04:58:21;101685.69;;;2.66;66.48
53506;BME280;39388;50.936;6.848;2023-04-05T05:00:52;101682.16;;;2.62;66.02
53506;BME280;39388;50.936;6.848;2023-04-05T05:03:22;101690.88;;;2.67;66.20
53506;BME280;39388;50.936;6.848;2023-04-05T05:05:52;101687.44;;;2.67;66.57
53506;BME280;39388;50.936;6.848;2023-04-05T05:08:23;101682.19;;;2.64;66.16
53506;BME280;39388;50.936;6.848;2023-04-05T05:10:53;101690.78;;;2.66;66.61
53506;BME280;39388;50.936;6.848;2023-04-05T05:13:23;101683.88;;;2.63;66.30
53506;BME280;39388;50.936;6.848;2023-04-05T05:15:54;101691.72;;;2.68;66.76
53506;BME280;39388;50.936;6.848;2023-04-05T05:18:25;101682.28;;;2.65;66.97
53506;BME280;39388;50.936;6.848;2023-04-05T05:20:56;101689.50;;;2.75;66.83
53506;BME280;39388;50.936;6.848;2023-04-05T05:23:26;101688.91;;;2.81;66.45
53506;BME280;39388;50.936;6.848;2023-04-05T05:25:59;101686.00;;;2.93;66.60
53506;BME280;39388;50.936;6.848;2023-04-05T05:28:30;101686.16;;;3.17;66.31
53506;BME280;39388;50.936;6.848;2023-04-05T05:31:02;101689.56;;;3.39;65.33
53506;BME280;39388;50.936;6.848;2023-04-05T05:33:32;101688.56;;;3.57;64.96
53506;BME280;39388;50.936;6.848;2023-04-05T05:36:03;101676.75;;;3.59;64.60
53506;BME280;39388;50.936;6.848;2023-04-05T05:38:33;101675.13;;;3.61;64.95
53506;BME280;39388;50.936;6.848;2023-04-05T05:41:04;101679.13;;;3.54;64.93
53506;BME280;39388;50.936;6.848;2023-04-05T05:43:34;101686.47;;;3.46;65.37
53506;BME280;39388;50.936;6.848;2023-04-05T05:46:05;101675.72;;;3.55;65.30
53506;BME280;39388;50.936;6.848;2023-04-05T05:48:35;101682.41;;;3.95;64.77
53506;BME280;39388;50.936;6.848;2023-04-05T05:51:06;101675.03;;;4.03;64.37
53506;BME280;39388;50.936;6.848;2023-04-05T05:53:38;101679.22;;;4.01;64.24
53506;BME280;39388;50.936;6.848;2023-04-05T05:56:09;101685.38;;;4.30;63.53
53506;BME280;39388;50.936;6.848;2023-04-05T05:58:40;101677.31;;;4.93;62.62
53506;BME280;39388;50.936;6.848;2023-04-05T06:01:10;101678.00;;;5.67;60.59
53506;BME280;39388;50.936;6.848;2023-04-05T06:03:41;101681.28;;;6.52;59.25
53506;BME280;39388;50.936;6.848;2023-04-05T06:06:11;101670.13;;;7.17;57.26
53506;BME280;39388;50.936;6.848;2023-04-05T06:08:42;101674.38;;;7.88;56.03
53506;BME280;39388;50.936;6.848;2023-04-05T06:11:17;101657.19;;;8.28;54.66
53506;BME280;39388;50.936;6.848;2023-04-05T06:13:51;101671.09;;;8.37;54.17
53506;BME280;39388;50.936;6.848;2023-04-05T06:16:24;101655.06;;;7.66;55.28
53506;BME280;39388;50.936;6.848;2023-04-05T06:18:55;101673.31;;;7.06;56.45
53506;BME280;39388;50.936;6.848;2023-04-05T06:21:26;101679.22;;;6.70;57.19
53506;BME280;39388;50.936;6.848;2023-04-05T06:23:56;101673.97;;;6.66;57.19
53506;BME280;39388;50.936;6.848;2023-04-05T06:26:27;101675.16;;;6.79;57.00
53506;BME280;39388;50.936;6.848;2023-04-05T06:28:59;101669.72;;;6.66;57.27
53506;BME280;39388;50.936;6.848;2023-04-05T06:31:33;101665.13;;;6.86;56.55
53506;BME280;39388;50.936;6.848;2023-04-05T06:34:04;101666.53;;;6.75;56.18
53506;BME280;39388;50.936;6.848;2023-04-05T06:36:35;101669.72;;;6.66;57.14
53506;BME280;39388;50.936;6.848;2023-04-05T06:39:06;101669.53;;;6.58;56.77
53506;BME280;39388;50.936;6.848;2023-04-05T06:41:37;101670.34;;;6.57;56.83
53506;BME280;39388;50.936;6.848;2023-04-05T06:44:07;101672.59;;;6.79;57.28
53506;BME280;39388;50.936;6.848;2023-04-05T06:46:37;101673.44;;;7.13;56.04
53506;BME280;39388;50.936;6.848;2023-04-05T06:49:08;101673.00;;;7.29;55.77
53506;BME280;39388;50.936;6.848;2023-04-05T06:51:38;101672.50;;;7.09;55.84
53506;BME280;39388;50.936;6.848;2023-04-05T06:54:09;101682.13;;;6.83;56.25
53506;BME280;39388;50.936;6.848;2023-04-05T06:56:39;101673.03;;;6.62;57.29
53506;BME280;39388;50.936;6.848;2023-04-05T06:59:10;101679.34;;;6.75;57.51
53506;BME280;39388;50.936;6.848;2023-04-05T07:01:40;101674.34;;;6.80;57.33
53506;BME280;39388;50.936;6.848;2023-04-05T07:04:11;101676.84;;;6.78;57.08
53506;BME280;39388;50.936;6.848;2023-04-05T07:06:41;101683.00;;;6.85;56.87
53506;BME280;39388;50.936;6.848;2023-04-05T07:09:12;101677.81;;;7.50;56.42
53506;BME280;39388;50.936;6.848;2023-04-05T07:11:42;101670.06;;;8.28;54.93
53506;BME280;39388;50.936;6.848;2023-04-05T07:14:12;101670.63;;;8.58;54.27
53506;BME280;39388;50.936;6.848;2023-04-05T07:16:43;101660.63;;;8.73;53.31
53506;BME280;39388;50.936;6.848;2023-04-05T07:19:13;101662.38;;;9.27;52.79
53506;BME280;39388;50.936;6.848;2023-04-05T07:21:44;101660.34;;;10.30;50.46
53506;BME280;39388;50.936;6.848;2023-04-05T07:24:14;101657.84;;;11.29;48.35
53506;BME280;39388;50.936;6.848;2023-04-05T07:26:45;101647.91;;;11.97;47.01
53506;BME280;39388;50.936;6.848;2023-04-05T07:29:15;101649.78;;;12.43;45.98
53506;BME280;39388;50.936;6.848;2023-04-05T07:31:46;101651.59;;;12.86;44.50
53506;BME280;39388;50.936;6.848;2023-04-05T07:34:16;101653.31;;;13.30;44.09
53506;BME280;39388;50.936;6.848;2023-04-05T07:36:46;101649.81;;;13.61;43.54
53506;BME280;39388;50.936;6.848;2023-04-05T07:39:17;101640.22;;;13.92;42.86
53506;BME280;39388;50.936;6.848;2023-04-05T07:41:47;101641.84;;;14.17;42.20
53506;BME280;39388;50.936;6.848;2023-04-05T07:44:17;101652.09;;;14.40;41.67
53506;BME280;39388;50.936;6.848;2023-04-05T07:46:48;101645.91;;;14.61;41.25
53506;BME280;39388;50.936;6.848;2023-04-05T07:49:23;101644.00;;;14.91;40.34
53506;BME280;39388;50.936;6.848;2023-04-05T07:51:57;101651.56;;;15.18;40.32
53506;BME280;39388;50.936;6.848;2023-04-05T07:54:30;101641.84;;;15.40;39.39
53506;BME280;39388;50.936;6.848;2023-04-05T07:57:01;101635.59;;;15.58;39.08
53506;BME280;39388;50.936;6.848;2023-04-05T07:59:31;101650.09;;;15.78;38.63
53506;BME280;39388;50.936;6.848;2023-04-05T08:02:02;101629.19;;;15.85;38.27
53506;BME280;39388;50.936;6.848;2023-04-05T08:04:32;101639.44;;;15.99;38.18
53506;BME280;39388;50.936;6.848;2023-04-05T08:07:03;101634.88;;;16.20;37.87
53506;BME280;39388;50.936;6.848;2023-04-05T08:09:34;101634.47;;;16.46;37.30
53506;BME280;39388;50.936;6.848;2023-04-05T08:12:05;101637.78;;;16.58;37.13
53506;BME280;39388;50.936;6.848;2023-04-05T08:14:35;101636.00;;;16.61;36.78
53506;BME280;39388;50.936;6.848;2023-04-05T08:17:06;101635.00;;;16.70;36.49
53506;BME280;39388;50.936;6.848;2023-04-05T08:19:36;101634.84;;;16.79;36.42
53506;BME280;39388;50.936;6.848;2023-04-05T08:22:07;101634.56;;;16.96;35.78
53506;BME280;39388;50.936;6.848;2023-04-05T08:24:37;101631.00;;;17.02;35.88
53506;BME280;39388;50.936;6.848;2023-04-05T08:27:07;101627.38;;;17.11;35.88
53506;BME280;39388;50.936;6.848;2023-04-05T08:29:38;101639.50;;;17.12;35.24
53506;BME280;39388;50.936;6.848;2023-04-05T08:32:08;101637.03;;;17.06;35.17
53506;BME280;39388;50.936;6.848;2023-04-05T08:34:38;101640.25;;;17.19;35.04
53506;BME280;39388;50.936;6.848;2023-04-05T08:37:09;101637.94;;;17.03;35.18
53506;BME280;39388;50.936;6.848;2023-04-05T08:39:39;101630.41;;;16.86;35.04
53506;BME280;39388;50.936;6.848;2023-04-05T08:42:18;101633.59;;;16.49;35.30
53506;BME280;39388;50.936;6.848;2023-04-05T08:44:53;101626.72;;;16.43;35.69
53506;BME280;39388;50.936;6.848;2023-04-05T08:47:26;101625.53;;;16.64;35.27
53506;BME280;39388;50.936;6.848;2023-04-05T08:49:57;101624.41;;;16.81;35.20
53506;BME280;39388;50.936;6.848;2023-04-05T08:52:30;101636.19;;;17.04;34.86
53506;BME280;39388;50.936;6.848;2023-04-05T08:55:01;101634.47;;;17.03;34.39
53506;BME280;39388;50.936;6.848;2023-04-05T08:57:31;101620.03;;;16.83;34.39
53506;BME280;39388;50.936;6.848;2023-04-05T09:00:05;101627.88;;;16.80;34.38
53506;BME280;39388;50.936;6.848;2023-04-05T09:02:37;101629.66;;;16.79;33.93
53506;BME280;39388;50.936;6.848;2023-04-05T09:05:08;101629.59;;;16.81;33.85
53506;BME280;39388;50.936;6.848;2023-04-05T09:07:40;101617.75;;;16.63;34.07
53506;BME280;39388;50.936;6.848;2023-04-05T09:10:12;101629.66;;;16.18;34.60
53506;BME280;39388;50.936;6.848;2023-04-05T09:12:43;101634.88;;;15.43;35.65
53506;BME280;39388;50.936;6.848;2023-04-05T09:15:15;101631.91;;;14.87;36.48
53506;BME280;39388;50.936;6.848;2023-04-05T09:17:46;101632.19;;;14.45;37.06
53506;BME280;39388;50.936;6.848;2023-04-05T09:20:17;101626.28;;;14.17;37.36
53506;BME280;39388;50.936;6.848;2023-04-05T09:22:47;101623.81;;;13.95;37.49
53506;BME280;39388;50.936;6.848;2023-04-05T09:28:00;101621.31;;;13.61;38.26
53506;BME280;39388;50.936;6.848;2023-04-05T09:30:34;101617.03;;;13.44;38.44
53506;BME280;39388;50.936;6.848;2023-04-05T09:33:07;101624.81;;;13.35;38.16
53506;BME280;39388;50.936;6.848;2023-04-05T09:35:39;101621.38;;;13.22;37.85
53506;BME280;39388;50.936;6.848;2023-04-05T09:38:10;101621.38;;;13.10;37.95
53506;BME280;39388;50.936;6.848;2023-04-05T09:40:47;101616.19;;;13.17;38.03
53506;BME280;39388;50.936;6.848;2023-04-05T09:43:41;101623.09;;;13.23;38.26
53506;BME280;39388;50.936;6.848;2023-04-05T09:46:38;101620.50;;;13.19;38.60
53506;BME280;39388;50.936;6.848;2023-04-05T09:49:10;101620.53;;;13.00;38.79
53506;BME280;39388;50.936;6.848;2023-04-05T09:51:41;101617.06;;;12.93;38.51
53506;BME280;39388;50.936;6.848;2023-04-05T09:54:11;101609.31;;;12.87;38.49
53506;BME280;39388;50.936;6.848;2023-04-05T09:56:53;101622.25;;;12.99;38.34
53506;BME280;39388;50.936;6.848;2023-04-05T09:59:23;101609.31;;;12.98;38.64
53506;BME280;39388;50.936;6.848;2023-04-05T10:01:54;101617.94;;;13.06;38.21
53506;BME280;39388;50.936;6.848;2023-04-05T10:04:25;101605.88;;;12.96;38.11
53506;BME280;39388;50.936;6.848;2023-04-05T10:06:56;101603.28;;;12.90;37.83
53506;BME280;39388;50.936;6.848;2023-04-05T10:09:26;101603.25;;;12.94;38.11
53506;BME280;39388;50.936;6.848;2023-04-05T10:11:57;101595.50;;;12.93;38.20
53506;BME280;39388;50.936;6.848;2023-04-05T10:14:28;101604.13;;;13.07;38.28
53506;BME280;39388;50.936;6.848;2023-04-05T10:22:14;101586.00;;;13.07;37.90
53506;BME280;39388;50.936;6.848;2023-04-05T10:25:04;101590.31;;;13.13;37.40
53506;BME280;39388;50.936;6.848;2023-04-05T10:27:43;101598.94;;;13.16;37.63
53506;BME280;39388;50.936;6.848;2023-04-05T10:30:16;101594.63;;;13.17;37.43
53506;BME280;39388;50.936;6.848;2023-04-05T10:39:04;101585.97;;;13.32;36.80
53506;BME280;39388;50.936;6.848;2023-04-05T10:41:47;101586.84;;;13.25;36.34
53506;BME280;39388;50.936;6.848;2023-04-05T10:44:18;101581.66;;;13.26;36.27
53506;BME280;39388;50.936;6.848;2023-04-05T10:46:49;101582.53;;;13.28;35.89
53506;BME280;39388;50.936;6.848;2023-04-05T10:52:01;101574.75;;;13.39;35.40
53506;BME280;39388;50.936;6.848;2023-04-05T10:54:33;101564.38;;;13.28;34.87
53506;BME280;39388;50.936;6.848;2023-04-05T10:57:07;101564.41;;;13.21;34.85
53506;BME280;39388;50.936;6.848;2023-04-05T10:59:42;101555.78;;;13.15;34.80
53506;BME280;39388;50.936;6.848;2023-04-05T11:02:13;101558.38;;;13.17;35.28
53506;BME280;39388;50.936;6.848;2023-04-05T11:04:44;101564.41;;;13.14;35.29
53506;BME280;39388;50.936;6.848;2023-04-05T11:07:16;101556.66;;;13.16;35.16
53506;BME280;39388;50.936;6.848;2023-04-05T11:09:55;101554.88;;;13.29;35.54
53506;BME280;39388;50.936;6.848;2023-04-05T11:15:36;101547.94;;;13.50;35.23
53506;BME280;39388;50.936;6.848;2023-04-05T11:21:04;101548.84;;;13.47;35.18
53506;BME280;39388;50.936;6.848;2023-04-05T11:23:58;101549.69;;;13.51;35.25
53506;BME280;39388;50.936;6.848;2023-04-05T11:26:53;101541.88;;;13.61;35.80
53506;BME280;39388;50.936;6.848;2023-04-05T11:29:47;101539.22;;;13.68;35.76
53506;BME280;39388;50.936;6.848;2023-04-05T11:32:19;101532.34;;;13.68;35.69
53506;BME280;39388;50.936;6.848;2023-04-05T11:35:04;101539.22;;;13.71;35.36
53506;BME280;39388;50.936;6.848;2023-04-05T11:40:34;101533.19;;;13.72;35.38
53506;BME280;39388;50.936;6.848;2023-04-05T11:45:37;101519.34;;;13.73;35.28
53506;BME280;39388;50.936;6.848;2023-04-05T11:48:12;101523.66;;;13.72;35.45
53506;BME280;39388;50.936;6.848;2023-04-05T11:50:44;101526.25;;;13.72;35.05
53506;BME280;39388;50.936;6.848;2023-04-05T11:53:17;101520.22;;;13.72;34.99
53506;BME280;39388;50.936;6.848;2023-04-05T11:55:51;101508.94;;;13.79;34.69
53506;BME280;39388;50.936;6.848;2023-04-05T11:58:23;101513.16;;;13.92;34.47
53506;BME280;39388;50.936;6.848;2023-04-05T12:00:58;101511.47;;;13.93;34.38
53506;BME280;39388;50.936;6.848;2023-04-05T12:03:29;101515.75;;;13.96;34.38
53506;BME280;39388;50.936;6.848;2023-04-05T12:06:01;101502.91;;;13.72;33.91
53506;BME280;39388;50.936;6.848;2023-04-05T12:11:10;101504.59;;;13.81;33.68
53506;BME280;39388;50.936;6.848;2023-04-05T12:13:41;101491.69;;;13.76;33.97
53506;BME280;39388;50.936;6.848;2023-04-05T12:16:14;101495.03;;;13.91;34.03
53506;BME280;39388;50.936;6.848;2023-04-05T12:18:58;101496.72;;;14.00;33.43
53506;BME280;39388;50.936;6.848;2023-04-05T12:21:29;101495.78;;;14.12;33.67
53506;BME280;39388;50.936;6.848;2023-04-05T12:23:59;101497.44;;;14.19;32.94
53506;BME280;39388;50.936;6.848;2023-04-05T12:26:30;101488.81;;;14.17;32.79
53506;BME280;39388;50.936;6.848;2023-04-05T12:29:03;101495.78;;;14.07;32.86
53506;BME280;39388;50.936;6.848;2023-04-05T12:31:39;101486.34;;;14.00;33.28
53506;BME280;39388;50.936;6.848;2023-04-05T12:34:12;101480.31;;;13.95;33.03
53506;BME280;39388;50.936;6.848;2023-04-05T12:36:43;101470.81;;;13.97;33.03
53506;BME280;39388;50.936;6.848;2023-04-05T12:39:15;101482.88;;;14.02;32.72
53506;BME280;39388;50.936;6.848;2023-04-05T12:41:58;101473.44;;;13.95;32.47
53506;BME280;39388;50.936;6.848;2023-04-05T12:44:29;101445.91;;;13.77;32.31
53506;BME280;39388;50.936;6.848;2023-04-05T12:47:00;101457.94;;;13.84;32.41
53506;BME280;39388;50.936;6.848;2023-04-05T12:49:38;101457.03;;;13.87;32.47
53506;BME280;39388;50.936;6.848;2023-04-05T12:52:08;101463.97;;;13.86;32.35
53506;BME280;39388;50.936;6.848;2023-04-05T12:54:38;101458.81;;;13.83;32.11
53506;BME280;39388;50.936;6.848;2023-04-05T12:57:09;101459.66;;;13.82;31.99
53506;BME280;39388;50.936;6.848;2023-04-05T12:59:42;101451.81;;;13.95;32.33
53506;BME280;39388;50.936;6.848;2023-04-05T13:02:12;101452.63;;;14.01;32.25
53506;BME280;39388;50.936;6.848;2023-04-05T13:04:42;101448.31;;;14.00;32.24
53506;BME280;39388;50.936;6.848;2023-04-05T13:07:13;101432.81;;;13.94;32.09
53506;BME280;39388;50.936;6.848;2023-04-05T13:09:43;101435.38;;;13.99;31.94
53506;BME280;39388;50.936;6.848;2023-04-05T13:12:13;101413.81;;;13.92;32.48
53506;BME280;39388;50.936;6.848;2023-04-05T13:14:44;101423.19;;;14.08;32.67
53506;BME280;39388;50.936;6.848;2023-04-05T13:17:14;101419.84;;;13.97;32.45
53506;BME280;39388;50.936;6.848;2023-04-05T13:19:45;101427.59;;;13.96;32.34
53506;BME280;39388;50.936;6.848;2023-04-05T13:22:15;101431.91;;;14.00;32.54
53506;BME280;39388;50.936;6.848;2023-04-05T13:24:45;101424.13;;;13.97;32.21
53506;BME280;39388;50.936;6.848;2023-04-05T13:27:16;101420.72;;;13.93;32.12
53506;BME280;39388;50.936;6.848;2023-04-05T13:29:46;101421.59;;;13.89;32.10
53506;BME280;39388;50.936;6.848;2023-04-05T13:32:16;101413.81;;;13.89;32.00
53506;BME280;39388;50.936;6.848;2023-04-05T13:34:47;101414.59;;;14.00;32.57
53506;BME280;39388;50.936;6.848;2023-04-05T13:37:18;101413.72;;;14.04;32.17
53506;BME280;39388;50.936;6.848;2023-04-05T13:39:48;101401.63;;;14.03;31.92
53506;BME280;39388;50.936;6.848;2023-04-05T13:42:18;101397.31;;;14.01;31.61
53506;BME280;39388;50.936;6.848;2023-04-05T13:44:49;101391.38;;;13.89;31.10
53506;BME280;39388;50.936;6.848;2023-04-05T13:47:20;101394.91;;;13.81;31.32
53506;BME280;39388;50.936;6.848;2023-04-05T13:49:50;101408.66;;;13.86;31.60
53506;BME280;39388;50.936;6.848;2023-04-05T13:52:20;101386.22;;;13.86;31.49
53506;BME280;39388;50.936;6.848;2023-04-05T13:54:51;101378.41;;;13.88;31.53
53506;BME280;39388;50.936;6.848;2023-04-05T13:57:21;101386.13;;;13.96;31.97
53506;BME280;39388;50.936;6.848;2023-04-05T13:59:52;101381.84;;;13.90;31.83
53506;BME280;39388;50.936;6.848;2023-04-05T14:02:22;101387.84;;;13.98;31.99